Hundvaag 1 weather for Jun 2010
Month no. 276
Obs.
Da.
Temp. Dew Point Precip. Wind
Speed
Wind gusts Cloud cover Press. Humidity Wind dir. Sunny OPT
01.06.2010 9,2 8,6 0,0 0,0 8,0 6 1016,1 96,0 292,5 1 77,5 %
02.06.2010 10,2 9,6 0,0 0,0 3,2 4 1018,2 96,0 270,0 1 75,0 %
03.06.2010 11,1 10,3 0,0 1,6 1,6 3 1020,9 95,0 292,5 1 72,5 %
04.06.2010 10,7 8,8 0,0 0,0 16,1 8 1021,2 88,0 22,5 1 85,0 %
05.06.2010 9,3 7,6 0,0 3,2 3,2 10 1019,2 89,0 292,5 1 87,5 %
06.06.2010 10,0 6,7 0,0 1,6 4,8 10 1014,8 80,0 315,0 1 90,0 %
07.06.2010 12,8 10,2 0,0 7,4 7,4 8 1003,9 84,0 315,0 1 82,5 %
08.06.2010 14,0 9,6 0,0 11,1 11,1 5 1004,3 75,0 315,0 1 72,5 %
09.06.2010 15,1 11,1 0,0 1,8 0,0 10 1008,0 72,0 112,5 1 95,0 %
10.06.2010 14,3 9,7 0,0 2,4 2,4 4 1012,8 74,0 270,0 1 77,5 %
11.06.2010 11,1 13,2 0,1 3,0 7,4 0 1002,9 95,0 292,5   65,0 %
12.06.2010 8,8 8,7 7,2 22,2 22,2 0 993,1 99,0 180,0   42,5 %
13.06.2010 9,4 7,5 4,8 9,3 9,3 5 1007,3 88,0 270,0 1 67,5 %
14.06.2010 7,8 5,3 0,0 7,4 7,4 9 1012,4 84,0 270,0 1 80,0 %
15.06.2010 13,6 7,1 0,0 1,0 19,3 10 1024,7 70,0 292,5 1 92,5 %
16.06.2010 11,9 5,0 0,0 3,3 3,2 10 1028,1 67,0 292,5 1 90,0 %
17.06.2010 11,0 9,6 0,0 2,0 4,8 0 1025,0 86,0 270,0 1 65,0 %
18.06.2010 10,3 5,9 0,1 4,7 14,5 5 1016,1 76,0 292,5 1 75,0 %
19.06.2010 9,8 4,1 0,0 4,8 12,9 5 1005,5 71,0 292,5 1 72,5 %
20.06.2010 8,5 5,6 0,0 0,0 0,0 7 1007,7 82,0 270,0 1 80,0 %
21.06.2010 12,7 7,7 0,0 1,1 0,0 10 1021,1 76,0 315,0 1 92,5 %
22.06.2010 10,0 7,6 0,0 2,0 9,3 0 1024,0 82,0 247,5 1 65,0 %
23.06.2010 14,8 5,4 0,0 1,1 7,2 10 1023,4 72,0 270,0 1 92,5 %
24.06.2010 13,0 5,4 0,0 1,0 7,2 3 1018,0 75,0 112,5 1 75,0 %
25.06.2010 12,0 11,4 0,6 0,0 13,0 0 1015,0 85,0 180,0 1 65,0 %
26.06.2010 11,7 11,1 1,8 6,4 6,4 1 1011,7 96,0 337,5   65,0 %
27.06.2010 10,9 9,5 0,0 5,6 5,6 10 1014,8 91,0 270,0 1 87,5 %
28.06.2010 15,7 9,3 0,0 0,6 0,0 6 1021,6 74,0 67,5 1 85,0 %
29.06.2010 18,5 12,9 0,0 1,0 1,6 9 1020,3 75,0 45,0 1 95,0 %
30.06.2010 12,8 11,9 4,0 5,1 1,6 0 1018,0 90,0 270,0 1 62,5 %
                       
Avrg/Sum 11,7 8,5 18,6 3,7 7,0 5,6 1015,0 82,8 244,5 27 77,7 %